createdAt,value
2023-09-06T00:00:18.634Z,24.90
2023-09-06T00:02:45.561Z,24.90
2023-09-06T00:05:12.630Z,24.90
2023-09-06T00:07:39.537Z,24.90
2023-09-06T00:10:06.579Z,24.90
2023-09-06T00:12:33.705Z,25.00
2023-09-06T00:15:00.627Z,24.90
2023-09-06T00:17:27.491Z,24.90
2023-09-06T00:19:54.413Z,24.90
2023-09-06T00:22:21.564Z,24.90
2023-09-06T00:24:48.488Z,24.90
2023-09-06T00:27:15.760Z,24.90
2023-09-06T00:29:42.639Z,24.90
2023-09-06T00:32:11.961Z,24.90
2023-09-06T00:34:38.954Z,24.90
2023-09-06T00:37:06.577Z,24.90
2023-09-06T00:39:33.567Z,24.90
2023-09-06T00:42:01.587Z,24.90
2023-09-06T00:44:28.495Z,24.90
2023-09-06T00:46:55.512Z,24.90
2023-09-06T00:49:22.527Z,24.90
2023-09-06T00:51:49.458Z,24.90
2023-09-06T00:54:16.645Z,24.90
2023-09-06T00:56:43.568Z,24.90
2023-09-06T00:59:13.997Z,24.90
2023-09-06T01:01:41.090Z,24.90
2023-09-06T01:04:08.218Z,24.90
2023-09-06T01:06:35.721Z,24.90
2023-09-06T01:09:06.950Z,24.90
2023-09-06T01:11:38.563Z,24.90
2023-09-06T01:14:05.774Z,24.90
2023-09-06T01:16:34.049Z,24.90
2023-09-06T01:19:02.089Z,24.90
2023-09-06T01:21:35.239Z,24.90
2023-09-06T01:24:03.265Z,24.90
2023-09-06T01:26:30.564Z,24.90
2023-09-06T01:28:57.486Z,24.90
2023-09-06T01:31:24.579Z,24.90
2023-09-06T01:33:51.697Z,24.90
2023-09-06T01:36:18.636Z,24.90
2023-09-06T01:38:45.513Z,24.90
2023-09-06T01:41:13.383Z,24.90
2023-09-06T01:43:40.300Z,24.90
2023-09-06T01:46:07.312Z,24.90
2023-09-06T01:48:34.349Z,24.90
2023-09-06T01:51:01.228Z,24.80
2023-09-06T01:53:28.118Z,24.90
2023-09-06T01:55:55.060Z,24.90
2023-09-06T01:58:22.037Z,24.90
2023-09-06T02:00:49.077Z,24.90
2023-09-06T02:03:17.337Z,24.80
2023-09-06T02:05:44.876Z,24.90
2023-09-06T02:08:12.513Z,24.80
2023-09-06T02:10:39.472Z,24.80
2023-09-06T02:13:06.402Z,24.90
2023-09-06T02:15:33.393Z,24.90
2023-09-06T02:18:00.412Z,24.90
2023-09-06T02:20:29.243Z,24.80
2023-09-06T02:22:59.773Z,24.80
2023-09-06T02:25:31.211Z,24.80
2023-09-06T02:27:58.870Z,24.80
2023-09-06T02:30:26.120Z,24.80
2023-09-06T02:32:55.921Z,24.80
2023-09-06T02:35:23.071Z,24.80
2023-09-06T02:37:50.185Z,24.80
2023-09-06T02:40:19.462Z,24.80
2023-09-06T02:42:50.057Z,24.80
2023-09-06T02:45:17.107Z,24.80
2023-09-06T02:47:49.656Z,24.80
2023-09-06T02:50:18.337Z,24.80
2023-09-06T02:52:48.553Z,24.80
2023-09-06T02:55:15.562Z,24.80
2023-09-06T02:57:43.111Z,24.80
2023-09-06T03:00:20.580Z,24.80
2023-09-06T03:02:48.310Z,24.80
2023-09-06T03:05:18.998Z,24.80
2023-09-06T03:07:47.462Z,24.80
2023-09-06T03:10:14.430Z,24.80
2023-09-06T03:12:45.125Z,24.80
2023-09-06T03:15:12.818Z,24.80
2023-09-06T03:17:39.905Z,24.80
2023-09-06T03:20:20.205Z,24.80
2023-09-06T03:22:47.766Z,24.80
2023-09-06T03:25:15.974Z,24.80
2023-09-06T03:27:46.259Z,24.80
2023-09-06T03:30:16.423Z,24.80
2023-09-06T03:32:44.072Z,24.80
2023-09-06T03:35:11.200Z,24.80
2023-09-06T03:37:38.161Z,24.80
2023-09-06T03:40:25.190Z,24.80
2023-09-06T03:42:54.825Z,24.80
2023-09-06T03:45:23.040Z,24.80
2023-09-06T03:47:50.243Z,24.80
2023-09-06T03:50:17.295Z,24.80
2023-09-06T03:52:44.551Z,24.70
2023-09-06T03:55:11.911Z,24.70
2023-09-06T03:57:39.970Z,24.80
2023-09-06T04:00:27.174Z,24.80
2023-09-06T04:02:58.554Z,24.80
2023-09-06T04:05:29.566Z,24.70
2023-09-06T04:07:57.683Z,24.70
2023-09-06T04:10:25.346Z,24.70
2023-09-06T04:12:52.692Z,24.70
2023-09-06T04:15:22.763Z,24.70
2023-09-06T04:17:55.547Z,24.70
2023-09-06T04:20:24.724Z,24.70
2023-09-06T04:22:52.590Z,24.70
2023-09-06T04:25:20.395Z,24.70
2023-09-06T04:27:47.361Z,24.70
2023-09-06T04:30:17.300Z,24.70
2023-09-06T04:32:47.339Z,24.70
2023-09-06T04:35:18.112Z,24.80
2023-09-06T04:37:45.072Z,24.70
2023-09-06T04:40:13.499Z,24.70
2023-09-06T04:42:41.418Z,24.60
2023-09-06T04:45:10.662Z,24.40
2023-09-06T04:47:39.503Z,24.20
2023-09-06T04:50:07.315Z,24.00
2023-09-06T04:52:39.219Z,23.70
2023-09-06T04:55:11.821Z,23.40
2023-09-06T04:57:38.901Z,23.10
2023-09-06T05:00:12.131Z,22.80
2023-09-06T05:02:39.143Z,22.50
2023-09-06T05:05:07.229Z,22.20
2023-09-06T05:07:34.107Z,21.80
2023-09-06T05:10:01.058Z,21.50
2023-09-06T05:12:27.940Z,21.20
2023-09-06T05:14:55.365Z,21.00
2023-09-06T05:17:22.535Z,20.80
2023-09-06T05:19:51.440Z,20.60
2023-09-06T05:22:19.405Z,20.40
2023-09-06T05:24:47.179Z,20.20
2023-09-06T05:27:14.458Z,20.10
2023-09-06T05:29:42.281Z,20.00
2023-09-06T05:32:09.250Z,19.80
2023-09-06T05:34:36.706Z,19.80
2023-09-06T05:37:04.115Z,19.60
2023-09-06T05:39:32.160Z,19.60
2023-09-06T05:41:59.174Z,19.50
2023-09-06T05:44:26.225Z,19.50
2023-09-06T05:46:53.828Z,19.40
2023-09-06T05:49:20.933Z,19.40
2023-09-06T05:51:47.961Z,19.40
2023-09-06T05:54:14.936Z,19.30
2023-09-06T05:56:41.851Z,19.30
2023-09-06T05:59:09.241Z,19.30
2023-09-06T06:01:36.825Z,19.30
2023-09-06T06:04:03.992Z,19.30
2023-09-06T06:06:31.761Z,19.20
2023-09-06T06:08:58.783Z,19.20
2023-09-06T06:11:28.409Z,19.10
2023-09-06T06:14:07.989Z,19.10
2023-09-06T06:16:35.783Z,19.10
2023-09-06T06:19:02.940Z,19.00
2023-09-06T06:21:31.660Z,19.00
2023-09-06T06:23:59.036Z,19.00
2023-09-06T06:26:26.323Z,19.00
2023-09-06T06:28:53.785Z,19.00
2023-09-06T06:31:20.919Z,18.90
2023-09-06T06:33:49.324Z,18.90
2023-09-06T06:36:17.200Z,18.90
2023-09-06T06:38:47.618Z,18.90
2023-09-06T06:41:21.474Z,18.90
2023-09-06T06:43:48.618Z,18.90
2023-09-06T06:46:27.521Z,18.80
2023-09-06T06:48:55.155Z,18.80
2023-09-06T06:51:22.719Z,18.80
2023-09-06T06:53:50.244Z,18.80
2023-09-06T06:56:22.659Z,18.80
2023-09-06T06:58:49.744Z,18.80
2023-09-06T07:01:16.860Z,18.80
2023-09-06T07:03:43.810Z,18.80
2023-09-06T07:06:10.854Z,18.80
2023-09-06T07:08:37.776Z,18.80
2023-09-06T07:11:08.399Z,18.80
2023-09-06T07:13:36.261Z,18.80
2023-09-06T07:16:04.543Z,18.80
2023-09-06T07:18:32.506Z,18.80
2023-09-06T07:20:59.579Z,18.90
2023-09-06T07:23:27.735Z,18.90
2023-09-06T07:25:54.709Z,19.00
2023-09-06T07:28:25.555Z,19.00
2023-09-06T07:30:52.579Z,19.00
2023-09-06T07:33:19.619Z,19.00
2023-09-06T07:35:46.508Z,19.00
2023-09-06T07:38:13.504Z,19.00
2023-09-06T07:40:41.084Z,19.00
2023-09-06T07:43:08.012Z,19.00
2023-09-06T07:45:34.961Z,18.90
2023-09-06T07:48:02.595Z,18.90
2023-09-06T07:50:29.812Z,18.90
2023-09-06T07:52:56.916Z,18.90
2023-09-06T07:55:23.829Z,18.90
2023-09-06T07:57:50.725Z,18.90
2023-09-06T08:00:17.769Z,19.00
2023-09-06T08:02:44.774Z,19.00
2023-09-06T08:05:12.856Z,19.00
2023-09-06T08:07:40.300Z,19.00
2023-09-06T08:10:10.415Z,19.10
2023-09-06T08:12:38.194Z,19.00
2023-09-06T08:15:05.551Z,19.10
2023-09-06T08:17:32.991Z,19.10
2023-09-06T08:19:59.952Z,19.10
2023-09-06T08:22:39.171Z,19.10
2023-09-06T08:25:10.163Z,19.20
2023-09-06T08:27:37.155Z,19.20
2023-09-06T08:30:04.524Z,19.20
2023-09-06T08:32:31.916Z,19.20
2023-09-06T08:34:59.665Z,19.20
2023-09-06T08:37:26.824Z,19.20
2023-09-06T08:39:54.499Z,19.30
2023-09-06T08:42:22.127Z,19.30
2023-09-06T08:44:50.092Z,19.30
2023-09-06T08:47:19.161Z,19.30
2023-09-06T08:49:47.746Z,19.30
2023-09-06T08:52:18.772Z,19.40
2023-09-06T08:54:52.310Z,19.40
2023-09-06T08:57:20.631Z,19.50
2023-09-06T08:59:50.530Z,19.50
2023-09-06T09:02:18.060Z,19.50
2023-09-06T09:04:45.128Z,19.50
2023-09-06T09:07:13.622Z,19.50
2023-09-06T09:10:00.536Z,19.50
2023-09-06T09:12:32.307Z,19.50
2023-09-06T09:15:07.263Z,19.50
2023-09-06T09:17:57.073Z,19.60
2023-09-06T09:20:26.830Z,19.60
2023-09-06T09:22:54.008Z,19.60
2023-09-06T09:25:24.676Z,19.60
2023-09-06T09:27:59.764Z,19.60
2023-09-06T09:30:29.274Z,19.60
2023-09-06T09:32:57.780Z,19.60
2023-09-06T09:35:26.831Z,19.60
2023-09-06T09:37:53.981Z,19.60
2023-09-06T09:40:21.880Z,19.60
2023-09-06T09:43:03.325Z,19.60
2023-09-06T09:45:30.598Z,19.70
2023-09-06T09:48:01.347Z,19.70
2023-09-06T09:50:30.873Z,19.70
2023-09-06T09:53:11.375Z,19.80
2023-09-06T09:55:47.686Z,19.80
2023-09-06T09:58:14.801Z,19.80
2023-09-06T10:00:43.033Z,19.80
2023-09-06T10:03:11.868Z,19.80
2023-09-06T10:05:39.320Z,19.80
2023-09-06T10:08:06.811Z,19.80
2023-09-06T10:10:35.073Z,19.80
2023-09-06T10:13:05.868Z,19.80
2023-09-06T10:15:34.080Z,19.80
2023-09-06T10:18:01.660Z,19.90
2023-09-06T10:20:31.797Z,19.80
2023-09-06T10:22:59.986Z,19.80
2023-09-06T10:25:28.125Z,19.80
2023-09-06T10:27:58.728Z,19.80
2023-09-06T10:30:46.877Z,19.80
2023-09-06T10:33:34.293Z,19.80
2023-09-06T10:36:07.593Z,19.80
2023-09-06T10:38:55.751Z,19.70
2023-09-06T10:41:23.379Z,19.80
2023-09-06T10:44:10.034Z,19.80
2023-09-06T10:46:38.590Z,19.70
2023-09-06T10:49:17.624Z,19.70
2023-09-06T10:52:05.778Z,19.70
2023-09-06T10:54:39.157Z,19.70
2023-09-06T10:57:07.553Z,19.70
2023-09-06T10:59:39.247Z,19.70
2023-09-06T11:02:19.098Z,19.70
2023-09-06T11:04:47.602Z,19.70
2023-09-06T11:07:16.063Z,19.70
2023-09-06T11:09:46.689Z,19.80
2023-09-06T11:12:16.905Z,19.80
2023-09-06T11:14:48.266Z,19.80
2023-09-06T11:17:24.819Z,19.80
2023-09-06T11:19:51.998Z,19.80
2023-09-06T11:22:19.288Z,19.80
2023-09-06T11:24:46.556Z,19.80
2023-09-06T11:27:26.116Z,19.80
2023-09-06T11:29:58.593Z,19.80
2023-09-06T11:32:25.659Z,19.90
2023-09-06T11:34:52.753Z,19.90
2023-09-06T11:37:20.523Z,19.90
2023-09-06T11:39:48.004Z,19.90
2023-09-06T11:42:16.980Z,19.90
2023-09-06T11:44:49.174Z,19.90
2023-09-06T11:47:17.245Z,19.90
2023-09-06T11:49:46.892Z,20.00
2023-09-06T11:52:14.620Z,19.90
2023-09-06T11:54:41.614Z,20.00
2023-09-06T11:57:12.035Z,20.00
2023-09-06T11:59:39.390Z,20.00
2023-09-06T12:02:07.414Z,20.10
2023-09-06T12:04:36.052Z,20.10
2023-09-06T12:07:08.487Z,20.20
2023-09-06T12:09:37.789Z,20.20
2023-09-06T12:12:08.089Z,20.20
2023-09-06T12:14:35.115Z,20.30
2023-09-06T12:17:02.125Z,20.30
2023-09-06T12:19:29.299Z,20.40
2023-09-06T12:21:57.721Z,20.40
2023-09-06T12:24:25.412Z,20.40
2023-09-06T12:26:52.369Z,20.50
2023-09-06T12:29:19.429Z,20.50
2023-09-06T12:31:46.464Z,20.50
2023-09-06T12:34:14.867Z,20.60
2023-09-06T12:36:41.767Z,20.60
2023-09-06T12:39:08.667Z,20.70
2023-09-06T12:41:35.645Z,20.70
2023-09-06T12:44:02.542Z,20.70
2023-09-06T12:46:30.528Z,20.70
2023-09-06T12:48:57.657Z,20.80
2023-09-06T12:51:24.644Z,20.80
2023-09-06T12:53:51.578Z,20.80
2023-09-06T12:56:20.165Z,20.80
2023-09-06T12:58:47.599Z,20.80
2023-09-06T13:01:15.644Z,20.90
2023-09-06T13:03:44.551Z,20.90
2023-09-06T13:06:11.656Z,20.90
2023-09-06T13:08:38.644Z,20.90
2023-09-06T13:11:05.979Z,20.90
2023-09-06T13:13:33.102Z,20.90
2023-09-06T13:16:00.123Z,20.90
2023-09-06T13:18:27.184Z,21.00
2023-09-06T13:20:55.129Z,20.90
2023-09-06T13:23:22.029Z,21.00
2023-09-06T13:25:49.030Z,21.00
2023-09-06T13:28:15.984Z,21.00
2023-09-06T13:30:43.023Z,21.00
2023-09-06T13:33:11.087Z,21.00
2023-09-06T13:35:38.070Z,21.10
2023-09-06T13:38:05.039Z,21.10
2023-09-06T13:40:31.970Z,21.10
2023-09-06T13:42:59.052Z,21.10
2023-09-06T13:45:28.622Z,21.20
2023-09-06T13:47:57.242Z,21.20
2023-09-06T13:50:24.248Z,21.20
2023-09-06T13:52:51.382Z,21.20
2023-09-06T13:55:18.379Z,21.20
2023-09-06T13:57:45.690Z,21.20
2023-09-06T14:00:13.004Z,21.20
2023-09-06T14:02:40.366Z,21.20
2023-09-06T14:05:07.847Z,21.20
2023-09-06T14:07:34.873Z,21.40
2023-09-06T14:10:02.041Z,21.50
2023-09-06T14:12:28.928Z,21.70
2023-09-06T14:14:58.019Z,22.00
2023-09-06T14:17:25.181Z,22.20
2023-09-06T14:19:52.407Z,22.50
2023-09-06T14:22:20.763Z,22.70
2023-09-06T14:24:47.763Z,22.90
2023-09-06T14:27:16.701Z,23.10
2023-09-06T14:29:43.594Z,23.20
2023-09-06T14:32:10.604Z,23.30
2023-09-06T14:34:38.206Z,23.40
2023-09-06T14:37:05.220Z,23.60
2023-09-06T14:39:33.818Z,23.70
2023-09-06T14:42:00.717Z,23.80
2023-09-06T14:44:27.787Z,23.90
2023-09-06T14:46:55.080Z,24.00
2023-09-06T14:49:22.088Z,24.10
2023-09-06T14:51:48.974Z,24.10
2023-09-06T14:54:15.896Z,24.20
2023-09-06T14:56:42.771Z,24.30
2023-09-06T14:59:09.884Z,24.30
2023-09-06T15:01:41.081Z,24.40
2023-09-06T15:04:08.399Z,24.40
2023-09-06T15:06:48.546Z,24.50
2023-09-06T15:09:24.000Z,24.50
2023-09-06T15:11:51.329Z,24.60
2023-09-06T15:14:18.312Z,24.60
2023-09-06T15:16:46.314Z,24.70
2023-09-06T15:19:13.314Z,24.70
2023-09-06T15:21:41.089Z,24.80
2023-09-06T15:24:11.163Z,24.80
2023-09-06T15:26:38.261Z,24.80
2023-09-06T15:29:05.133Z,24.90
2023-09-06T15:31:32.337Z,24.90
2023-09-06T15:33:59.402Z,25.00
2023-09-06T15:36:30.965Z,25.00
2023-09-06T15:38:57.952Z,25.10
2023-09-06T15:41:24.903Z,25.10
2023-09-06T15:43:51.755Z,25.10
2023-09-06T15:46:18.757Z,25.20
2023-09-06T15:48:45.730Z,25.20
2023-09-06T15:51:12.728Z,25.30
2023-09-06T15:53:39.690Z,25.30
2023-09-06T15:56:06.658Z,25.40
2023-09-06T15:58:33.548Z,25.40
2023-09-06T16:01:03.146Z,25.40
2023-09-06T16:03:30.150Z,25.50
2023-09-06T16:05:57.215Z,25.50
2023-09-06T16:08:24.953Z,25.50
2023-09-06T16:10:52.354Z,25.50
2023-09-06T16:13:19.263Z,25.60
2023-09-06T16:15:47.803Z,25.60
2023-09-06T16:18:15.065Z,25.60
2023-09-06T16:20:43.533Z,25.60
2023-09-06T16:23:10.699Z,25.70
2023-09-06T16:25:37.578Z,25.70
2023-09-06T16:28:06.581Z,25.70
2023-09-06T16:30:34.566Z,25.70
2023-09-06T16:33:01.917Z,25.70
2023-09-06T16:35:29.051Z,25.80
2023-09-06T16:37:56.105Z,25.70
2023-09-06T16:40:24.844Z,25.80
2023-09-06T16:42:52.156Z,25.80
2023-09-06T16:45:19.999Z,25.80
2023-09-06T16:47:51.161Z,25.80
2023-09-06T16:50:18.655Z,25.80
2023-09-06T16:52:46.536Z,25.80
2023-09-06T16:55:13.675Z,25.80
2023-09-06T16:57:40.661Z,25.80
2023-09-06T17:00:10.030Z,25.80
2023-09-06T17:02:37.332Z,25.90
2023-09-06T17:05:07.459Z,25.80
2023-09-06T17:07:35.044Z,25.80
2023-09-06T17:10:02.495Z,25.90
2023-09-06T17:12:29.580Z,25.90
2023-09-06T17:14:57.087Z,25.80
2023-09-06T17:17:24.053Z,25.80
2023-09-06T17:19:51.013Z,25.80
2023-09-06T17:22:17.977Z,25.80
2023-09-06T17:24:44.869Z,25.70
2023-09-06T17:27:11.730Z,25.80
2023-09-06T17:29:41.273Z,25.70
2023-09-06T17:32:08.648Z,25.70
2023-09-06T17:34:35.682Z,25.70
2023-09-06T17:37:02.890Z,25.70
2023-09-06T17:39:29.899Z,25.70
2023-09-06T17:41:56.891Z,25.60
2023-09-06T17:44:23.809Z,25.60
2023-09-06T17:46:50.748Z,25.60
2023-09-06T17:49:17.944Z,25.60
2023-09-06T17:51:46.042Z,25.60
2023-09-06T17:54:14.373Z,25.50
2023-09-06T17:56:42.117Z,25.50
2023-09-06T17:59:09.094Z,25.50
2023-09-06T18:01:37.185Z,25.50
2023-09-06T18:04:07.004Z,25.50
2023-09-06T18:06:34.229Z,25.40
2023-09-06T18:09:08.745Z,25.50
2023-09-06T18:11:37.353Z,25.50
2023-09-06T18:14:09.306Z,25.40
2023-09-06T18:16:37.468Z,25.40
2023-09-06T18:19:04.624Z,25.40
2023-09-06T18:21:31.523Z,25.40
2023-09-06T18:24:06.864Z,25.40
2023-09-06T18:26:33.769Z,25.40
2023-09-06T18:29:00.836Z,25.40
2023-09-06T18:31:28.030Z,25.40
2023-09-06T18:33:54.955Z,25.30
2023-09-06T18:36:21.881Z,25.40
2023-09-06T18:38:49.645Z,25.40
2023-09-06T18:41:16.545Z,25.30
2023-09-06T18:43:43.545Z,25.30
2023-09-06T18:46:10.653Z,25.30
2023-09-06T18:48:39.884Z,25.30
2023-09-06T18:51:10.649Z,25.30
2023-09-06T18:53:38.405Z,25.30
2023-09-06T18:56:07.388Z,25.30
2023-09-06T18:58:37.493Z,25.30
2023-09-06T19:01:18.656Z,25.30
2023-09-06T19:03:45.799Z,25.20
2023-09-06T19:06:13.025Z,25.20
2023-09-06T19:08:40.258Z,25.20
2023-09-06T19:11:08.096Z,25.20
2023-09-06T19:13:35.121Z,25.20
2023-09-06T19:16:02.115Z,25.20
2023-09-06T19:18:29.298Z,25.20
2023-09-06T19:20:56.572Z,25.20
2023-09-06T19:23:23.929Z,25.20
2023-09-06T19:25:55.867Z,25.20
2023-09-06T19:28:24.012Z,25.20
2023-09-06T19:30:59.607Z,25.20
2023-09-06T19:33:26.914Z,25.20
2023-09-06T19:35:54.362Z,25.20
2023-09-06T19:38:23.390Z,25.20
2023-09-06T19:40:51.985Z,25.10
2023-09-06T19:43:22.888Z,25.20
2023-09-06T19:45:56.830Z,25.10
2023-09-06T19:48:24.197Z,25.10
2023-09-06T19:50:51.479Z,25.10
2023-09-06T19:53:18.517Z,25.10
2023-09-06T19:55:45.396Z,25.10
2023-09-06T19:58:12.601Z,25.10
2023-09-06T20:00:39.503Z,25.10
2023-09-06T20:03:06.634Z,25.10
2023-09-06T20:05:34.709Z,25.10
2023-09-06T20:08:01.737Z,25.10
2023-09-06T20:10:28.801Z,25.10
2023-09-06T20:12:55.740Z,25.10
2023-09-06T20:15:22.836Z,25.10
2023-09-06T20:17:49.782Z,25.10
2023-09-06T20:20:17.710Z,25.00
2023-09-06T20:22:44.656Z,25.10
2023-09-06T20:25:12.410Z,25.10
2023-09-06T20:27:39.327Z,25.00
2023-09-06T20:30:06.637Z,25.00
2023-09-06T20:32:33.641Z,25.00
2023-09-06T20:35:00.610Z,25.00
2023-09-06T20:37:27.518Z,25.00
2023-09-06T20:39:54.565Z,25.00
2023-09-06T20:42:21.548Z,25.00
2023-09-06T20:44:48.517Z,25.00
2023-09-06T20:47:15.400Z,25.00
2023-09-06T20:49:44.654Z,24.90
2023-09-06T20:52:11.695Z,25.00
2023-09-06T20:54:38.747Z,24.90
2023-09-06T20:57:05.853Z,24.90
2023-09-06T20:59:32.716Z,24.90
2023-09-06T21:01:59.660Z,24.90
2023-09-06T21:04:27.179Z,24.90
2023-09-06T21:06:54.242Z,24.90
2023-09-06T21:09:21.172Z,24.90
2023-09-06T21:11:48.101Z,24.90
2023-09-06T21:14:16.635Z,24.90
2023-09-06T21:16:45.880Z,24.90
2023-09-06T21:19:12.772Z,24.90
2023-09-06T21:21:39.713Z,24.90
2023-09-06T21:24:07.654Z,24.90
2023-09-06T21:26:34.612Z,24.90
2023-09-06T21:29:04.870Z,24.90
2023-09-06T21:31:34.027Z,24.90
2023-09-06T21:34:01.033Z,24.90
2023-09-06T21:36:28.105Z,24.90
2023-09-06T21:38:55.112Z,24.90
2023-09-06T21:41:21.998Z,24.80
2023-09-06T21:43:48.924Z,24.90
2023-09-06T21:46:15.894Z,24.90
2023-09-06T21:48:42.869Z,24.80
2023-09-06T21:51:14.267Z,24.90
2023-09-06T21:53:41.186Z,24.90
2023-09-06T21:56:09.028Z,24.80
2023-09-06T21:58:35.903Z,24.90
2023-09-06T22:01:03.078Z,24.90
2023-09-06T22:03:30.247Z,24.90
2023-09-06T22:05:57.880Z,24.90
2023-09-06T22:08:24.797Z,24.90
2023-09-06T22:10:51.775Z,24.80
2023-09-06T22:13:18.718Z,24.90
2023-09-06T22:15:45.815Z,24.80
2023-09-06T22:18:12.813Z,24.90
2023-09-06T22:20:41.473Z,24.80
2023-09-06T22:23:08.895Z,24.80
2023-09-06T22:25:36.006Z,24.80
2023-09-06T22:28:07.878Z,24.80
2023-09-06T22:30:39.096Z,24.80
2023-09-06T22:33:06.135Z,24.80
2023-09-06T22:35:33.414Z,24.80
2023-09-06T22:38:00.376Z,24.80
2023-09-06T22:40:27.390Z,24.80
2023-09-06T22:42:54.412Z,24.70
2023-09-06T22:45:21.333Z,24.80
2023-09-06T22:47:48.259Z,24.80
2023-09-06T22:50:15.182Z,24.70
2023-09-06T22:52:42.236Z,24.70
2023-09-06T22:55:11.419Z,24.70
2023-09-06T22:57:38.604Z,24.70
2023-09-06T23:00:08.886Z,24.70
2023-09-06T23:02:36.156Z,24.70
2023-09-06T23:05:03.297Z,24.70
2023-09-06T23:07:30.271Z,24.70
2023-09-06T23:09:57.888Z,24.70
2023-09-06T23:12:25.052Z,24.70
2023-09-06T23:14:52.603Z,24.70
2023-09-06T23:17:23.998Z,24.70
2023-09-06T23:19:54.251Z,24.70
2023-09-06T23:22:23.779Z,24.70
2023-09-06T23:24:53.337Z,24.70
2023-09-06T23:27:24.416Z,24.70
2023-09-06T23:29:59.792Z,24.70
2023-09-06T23:32:28.170Z,24.70
2023-09-06T23:34:55.387Z,24.70
2023-09-06T23:37:23.082Z,24.70
2023-09-06T23:39:51.049Z,24.70
2023-09-06T23:42:18.422Z,24.70
2023-09-06T23:44:47.091Z,24.70
2023-09-06T23:47:14.850Z,24.70
2023-09-06T23:49:44.061Z,24.60
2023-09-06T23:52:11.300Z,24.70
2023-09-06T23:54:47.133Z,24.70
2023-09-06T23:57:16.196Z,24.70
2023-09-06T23:59:43.051Z,24.60
